Time;durP1;ratioP1;P1;durP2;ratioP2;P2;SDS_P1;SDS_P2;PMS_P1;PMS_P2;Temp;Humidity;BMP_temperature;BMP_pressure;BME280_temperature;BME280_humidity;BME280_pressure;Samples;Min_cycle;Max_cycle;Signal;HPM_P1;HPM_P2
2022/05/20 00:01:45;;;;;;;12.75;8.68;;;17.10;99.90;;;;;;4927797;29;20188;-88
2022/05/20 00:04:11;;;;;;;18.65;8.88;;;17.10;99.90;;;;;;4960896;29;20034;-88
2022/05/20 00:06:37;;;;;;;10.88;8.73;;;17.10;99.90;;;;;;4960529;29;20516;-88
2022/05/20 00:09:03;;;;;;;13.45;8.23;;;17.00;99.90;;;;;;4943067;29;20038;-88
2022/05/20 00:11:29;;;;;;;13.18;8.32;;;17.00;99.90;;;;;;4959937;29;20023;-88
2022/05/20 00:13:54;;;;;;;13.35;9.32;;;17.00;99.90;;;;;;4958898;29;20020;-88
2022/05/20 00:16:23;;;;;;;13.15;9.52;;;17.00;99.90;;;;;;4960220;29;20035;-88
2022/05/20 00:18:49;;;;;;;14.25;8.73;;;16.90;99.90;;;;;;4973561;28;20595;-88
2022/05/20 00:21:14;;;;;;;10.82;8.30;;;16.90;99.90;;;;;;4961798;28;20048;-88
2022/05/20 00:23:40;;;;;;;11.10;8.60;;;16.90;99.90;;;;;;4961932;28;20051;-86
2022/05/20 00:26:06;;;;;;;13.05;8.45;;;16.80;99.90;;;;;;4962052;28;20035;-88
2022/05/20 00:28:32;;;;;;;12.05;8.63;;;16.80;99.90;;;;;;4945576;28;20034;-88
2022/05/20 00:31:03;;;;;;;13.73;8.80;;;16.80;99.90;;;;;;4978662;28;20035;-88
2022/05/20 00:33:32;;;;;;;11.02;8.50;;;16.70;99.90;;;;;;4962330;28;20027;-88
2022/05/20 00:35:57;;;;;;;12.75;8.80;;;16.70;99.90;;;;;;4961848;28;20117;-88
2022/05/20 00:38:24;;;;;;;12.95;8.98;;;16.70;99.90;;;;;;4962683;28;20051;-88
2022/05/20 00:40:52;;;;;;;12.82;8.30;;;16.60;99.90;;;;;;4962822;28;20041;-88
2022/05/20 00:43:33;;;;;;;10.18;8.57;;;16.60;99.90;;;;;;4962636;28;20039;-88
2022/05/20 00:46:03;;;;;;;;;;;16.60;99.90;;;;;;4962586;28;20019;-88
2022/05/20 00:48:29;;;;;;;11.68;7.97;;;16.50;99.90;;;;;;4962389;28;19906;-88
2022/05/20 00:50:59;;;;;;;8.80;6.10;;;16.50;99.90;;;;;;4978092;28;20038;-90
2022/05/20 00:53:29;;;;;;;6.57;4.93;;;16.50;99.90;;;;;;4979069;28;20023;-89
2022/05/20 00:55:56;;;;;;;9.05;5.75;;;16.40;99.90;;;;;;4963427;28;20418;-89
2022/05/20 00:58:23;;;;;;;9.68;7.28;;;16.30;99.90;;;;;;4980710;28;20023;-88
2022/05/20 01:00:55;;;;;;;11.50;7.35;;;16.30;99.90;;;;;;4963685;28;20035;-89
2022/05/20 01:03:30;;;;;;;10.73;8.00;;;16.20;99.90;;;;;;4967486;28;20027;-88
2022/05/20 01:05:57;;;;;;;11.70;8.23;;;16.10;99.90;;;;;;4966907;28;20065;-88
2022/05/20 01:08:27;;;;;;;9.95;7.90;;;16.10;99.90;;;;;;4986358;28;20022;-88
2022/05/20 01:10:53;;;;;;;8.25;7.32;;;16.10;99.90;;;;;;4968884;28;20061;-89
2022/05/20 01:13:20;;;;;;;10.48;7.80;;;16.10;99.90;;;;;;4967944;28;20433;-88
2022/05/20 01:15:46;;;;;;;10.52;8.20;;;16.00;99.90;;;;;;4968589;28;20030;-88
2022/05/20 01:18:14;;;;;;;9.82;7.70;;;16.00;99.90;;;;;;4969149;28;20031;-88
2022/05/20 01:20:47;;;;;;;9.63;7.13;;;16.00;99.90;;;;;;4966428;28;20057;-88
2022/05/20 01:23:18;;;;;;;8.88;6.03;;;16.00;99.90;;;;;;4983708;28;20053;-90
2022/05/20 01:25:47;;;;;;;8.60;7.00;;;15.90;99.90;;;;;;4982303;28;20026;-89
2022/05/20 01:28:14;;;;;;;8.95;6.60;;;15.90;99.90;;;;;;4967958;28;20151;-89
2022/05/20 01:30:49;;;;;;;16.05;7.18;;;15.90;99.90;;;;;;4967281;28;20459;-89
2022/05/20 01:33:23;;;;;;;8.57;6.38;;;15.80;99.90;;;;;;4966924;28;20019;-89
2022/05/20 01:35:51;;;;;;;9.32;8.10;;;15.80;99.90;;;;;;4967912;28;20360;-88
2022/05/20 01:38:17;;;;;;;9.50;7.60;;;15.70;99.90;;;;;;4985266;28;20054;-88
2022/05/20 01:40:50;;;;;;;9.00;7.40;;;15.70;99.90;;;;;;4951971;28;20039;-88
2022/05/20 01:43:29;;;;;;;11.02;8.38;;;15.70;99.90;;;;;;4985663;28;20188;-89
2022/05/20 01:46:19;;;;;;;12.32;7.93;;;15.60;99.90;;;;;;4985497;28;20054;-88
2022/05/20 01:48:51;;;;;;;7.50;6.70;;;15.60;99.90;;;;;;4968262;28;20542;-88
2022/05/20 01:51:21;;;;;;;7.97;6.15;;;15.60;99.90;;;;;;4968987;28;20050;-88
2022/05/20 01:53:57;;;;;;;7.25;6.05;;;15.60;99.90;;;;;;4985783;28;20046;-88
2022/05/20 01:56:38;;;;;;;7.65;6.03;;;15.50;99.90;;;;;;4968964;28;20118;-88
2022/05/20 01:59:17;;;;;;;7.68;6.32;;;15.50;99.90;;;;;;4969111;28;20027;-88
2022/05/20 02:01:59;;;;;;;9.00;6.20;;;15.50;99.90;;;;;;4968848;28;20026;-87
2022/05/20 02:04:51;;;;;;;8.27;6.38;;;15.50;99.90;;;;;;4969062;28;20031;-88
2022/05/20 02:07:22;;;;;;;7.95;6.50;;;15.50;99.90;;;;;;4976807;28;20077;-89
2022/05/20 02:10:11;;;;;;;8.27;7.03;;;15.50;99.90;;;;;;4969090;28;20050;-89
2022/05/20 02:12:45;;;;;;;9.50;6.90;;;15.40;99.90;;;;;;4968556;28;20019;-88
2022/05/20 02:15:50;;;;;;;7.35;5.93;;;15.40;99.90;;;;;;4985991;28;20019;-88
2022/05/20 02:18:29;;;;;;;5.28;4.30;;;15.40;99.90;;;;;;4972311;28;20507;-88
2022/05/20 02:21:05;;;;;;;5.88;4.80;;;15.30;99.90;;;;;;4973666;28;20438;-90
2022/05/20 02:23:52;;;;;;;5.25;4.60;;;15.30;99.90;;;;;;4974559;28;20111;-88
2022/05/20 02:26:23;;;;;;;10.18;7.40;;;15.20;99.90;;;;;;4971551;28;20030;-88
2022/05/20 02:28:55;;;;;;;11.93;10.38;;;15.20;99.90;;;;;;4970787;28;20038;-88
2022/05/20 02:31:37;;;;;;;9.85;8.75;;;15.10;99.90;;;;;;4992692;28;20037;-88
2022/05/20 02:34:03;;;;;;;10.07;8.00;;;15.10;99.90;;;;;;4972334;28;20037;-88
2022/05/20 02:36:34;;;;;;;8.30;7.40;;;15.00;99.90;;;;;;4967607;28;20051;-88
2022/05/20 02:39:02;;;;;;;10.65;7.57;;;15.00;99.90;;;;;;4985342;28;20027;-88
2022/05/20 02:41:29;;;;;;;11.05;7.88;;;14.90;99.90;;;;;;4968977;28;20027;-89
2022/05/20 02:43:54;;;;;;;9.88;8.43;;;14.90;99.90;;;;;;4967382;28;20387;-88
2022/05/20 02:46:22;;;;;;;10.50;8.20;;;14.90;99.90;;;;;;4985077;28;20034;-89
2022/05/20 02:48:48;;;;;;;10.75;8.85;;;14.90;99.90;;;;;;4983947;28;20022;-88
2022/05/20 02:51:16;;;;;;;9.93;8.93;;;14.90;99.90;;;;;;4965564;28;20497;-89
2022/05/20 02:53:44;;;;;;;8.32;7.47;;;14.90;99.90;;;;;;4981393;28;20026;-89
2022/05/20 02:56:09;;;;;;;9.10;8.18;;;14.90;99.90;;;;;;4962835;28;20022;-89
2022/05/20 03:04:09;;;;;;;8.32;7.43;;;14.80;99.90;;;;;;4971387;28;20061;-88
2022/05/20 03:06:46;;;;;;;9.40;6.45;;;14.80;99.90;;;;;;4969322;28;20459;-88
2022/05/20 03:09:14;;;;;;;8.02;6.05;;;14.80;99.90;;;;;;4967354;28;20050;-88
2022/05/20 03:11:40;;;;;;;10.15;7.47;;;14.70;99.90;;;;;;4964468;28;20030;-87
2022/05/20 03:14:12;;;;;;;9.27;7.40;;;14.70;99.90;;;;;;4967971;28;20058;-88
2022/05/20 03:16:38;;;;;;;9.90;7.90;;;14.70;99.90;;;;;;4969243;28;20019;-88
2022/05/20 03:19:05;;;;;;;9.45;8.00;;;14.70;99.90;;;;;;4969604;28;20027;-89
2022/05/20 03:21:32;;;;;;;9.13;7.65;;;14.60;99.90;;;;;;4969423;28;20551;-88
2022/05/20 03:24:01;;;;;;;9.45;7.95;;;14.70;99.90;;;;;;4965502;28;20075;-88
2022/05/20 03:26:32;;;;;;;10.70;7.85;;;14.60;99.90;;;;;;4967779;28;20118;-88
2022/05/20 03:29:02;;;;;;;8.60;7.27;;;14.60;99.90;;;;;;4968448;28;20033;-88
2022/05/20 03:31:28;;;;;;;9.20;7.90;;;14.60;99.90;;;;;;4968075;28;20266;-88
2022/05/20 03:33:54;;;;;;;8.73;7.82;;;14.60;99.90;;;;;;4967585;28;20034;-88
2022/05/20 03:36:19;;;;;;;8.40;7.50;;;14.50;99.90;;;;;;4966810;28;20090;-88
2022/05/20 03:38:47;;;;;;;8.82;7.93;;;14.50;99.90;;;;;;4965974;28;20057;-88
2022/05/20 03:41:13;;;;;;;8.60;7.68;;;14.50;99.90;;;;;;4949797;28;20034;-88
2022/05/20 03:43:41;;;;;;;8.23;7.03;;;14.50;99.90;;;;;;4966822;28;20022;-89
2022/05/20 03:46:08;;;;;;;8.02;6.50;;;14.50;99.90;;;;;;4966535;28;20109;-88
2022/05/20 03:48:36;;;;;;;8.10;6.43;;;14.50;99.90;;;;;;4951179;28;20031;-89
2022/05/20 03:51:12;;;;;;;8.50;7.07;;;14.50;99.90;;;;;;4947620;28;20031;-89
2022/05/20 03:53:43;;;;;;;8.43;6.18;;;14.50;99.90;;;;;;4965435;28;20050;-88
2022/05/20 03:56:09;;;;;;;7.85;6.97;;;14.50;99.90;;;;;;4967396;28;20026;-88
2022/05/20 03:58:35;;;;;;;6.53;5.78;;;14.50;99.90;;;;;;4966678;28;20027;-88
2022/05/20 04:03:46;;;;;;;6.78;5.95;;;14.40;99.90;;;;;;4970545;28;20038;-89
2022/05/20 04:06:13;;;;;;;8.07;7.18;;;14.40;99.90;;;;;;4968789;28;20023;-88
2022/05/20 04:08:39;;;;;;;10.77;8.90;;;14.40;99.90;;;;;;4968053;28;20094;-88
2022/05/20 04:11:11;;;;;;;11.95;10.10;;;14.40;99.90;;;;;;4962730;29;20061;-88
2022/05/20 04:13:39;;;;;;;14.23;10.95;;;14.40;99.90;;;;;;4965210;29;20484;-89
2022/05/20 04:16:05;;;;;;;12.48;11.18;;;14.40;99.90;;;;;;4965182;29;20023;-88
2022/05/20 04:18:31;;;;;;;12.45;10.70;;;14.40;99.90;;;;;;4963808;29;20042;-88
2022/05/20 04:20:59;;;;;;;13.63;11.88;;;14.40;99.90;;;;;;4947274;29;20062;-88
2022/05/20 04:23:25;;;;;;;15.95;13.63;;;14.40;99.90;;;;;;4962777;28;20051;-88
2022/05/20 04:25:51;;;;;;;15.68;14.07;;;14.40;99.90;;;;;;4962743;29;20024;-88
2022/05/20 04:28:17;;;;;;;16.52;14.57;;;14.40;99.90;;;;;;4946902;29;20032;-88
2022/05/20 04:30:42;;;;;;;19.42;16.63;;;14.40;99.90;;;;;;4946773;29;20042;-89
2022/05/20 04:33:08;;;;;;;17.02;14.80;;;14.40;99.90;;;;;;4962228;29;20170;-89
2022/05/20 04:35:34;;;;;;;17.77;13.70;;;14.40;99.90;;;;;;4963080;29;20027;-88
2022/05/20 04:38:00;;;;;;;14.95;13.07;;;14.40;99.90;;;;;;4962949;29;20058;-88
2022/05/20 04:40:26;;;;;;;15.77;14.05;;;14.40;99.90;;;;;;4946444;29;20506;-88
2022/05/20 04:48:33;;;;;;;16.98;14.02;;;14.50;99.90;;;;;;4954729;29;20039;-88
2022/05/20 04:51:01;;;;;;;16.10;14.07;;;14.50;99.90;;;;;;4961501;29;20038;-89
2022/05/20 04:56:31;;;;;;;13.80;12.30;;;14.50;99.90;;;;;;4925288;29;20099;-88
2022/05/20 04:59:01;;;;;;;13.90;12.52;;;14.50;99.90;;;;;;4908157;29;20067;-88
2022/05/20 05:01:29;;;;;;;13.87;11.67;;;14.50;99.90;;;;;;4944588;29;20043;-88
2022/05/20 05:03:54;;;;;;;14.43;12.93;;;14.50;99.90;;;;;;4932630;29;20087;-88
2022/05/20 05:06:20;;;;;;;15.27;13.68;;;14.40;99.90;;;;;;4963480;29;20122;-91
2022/05/20 05:08:46;;;;;;;15.02;13.35;;;14.50;99.90;;;;;;4945293;29;20038;-89
2022/05/20 05:11:12;;;;;;;15.60;13.90;;;14.50;99.90;;;;;;4960562;28;20058;-88
2022/05/20 05:13:37;;;;;;;15.23;13.65;;;14.50;99.90;;;;;;4954187;28;20022;-89
2022/05/20 05:16:10;;;;;;;14.85;13.43;;;14.50;99.90;;;;;;4966502;28;20018;-88
2022/05/20 05:18:37;;;;;;;15.35;13.75;;;14.50;99.90;;;;;;4989380;28;20030;-88
2022/05/20 05:21:04;;;;;;;14.75;13.25;;;14.60;99.90;;;;;;4968417;28;20106;-89
2022/05/20 05:23:32;;;;;;;14.70;13.00;;;14.50;99.90;;;;;;4967472;28;20047;-88
2022/05/20 05:25:58;;;;;;;15.18;13.18;;;14.60;99.90;;;;;;4960953;28;20028;-88
2022/05/20 05:28:26;;;;;;;14.35;12.95;;;14.60;99.90;;;;;;4960290;29;20027;-89
2022/05/20 05:30:56;;;;;;;15.07;13.48;;;14.60;99.90;;;;;;4960845;29;20078;-88
2022/05/20 05:33:24;;;;;;;15.63;14.02;;;14.60;99.90;;;;;;4944583;29;20065;-88
2022/05/20 05:35:52;;;;;;;14.77;13.23;;;14.60;99.90;;;;;;4934881;29;20016;-87
2022/05/20 05:38:20;;;;;;;15.52;13.93;;;14.60;99.90;;;;;;4964937;28;20034;-93
2022/05/20 05:40:49;;;;;;;16.83;15.05;;;14.60;99.90;;;;;;4964959;28;20034;-88
2022/05/20 05:43:18;;;;;;;17.13;15.32;;;14.70;99.90;;;;;;4948237;28;20027;-89
2022/05/20 05:45:46;;;;;;;17.05;14.98;;;14.70;99.90;;;;;;4962385;28;20047;-88
2022/05/20 05:48:20;;;;;;;16.85;15.15;;;14.70;99.90;;;;;;4972178;28;20038;-89
2022/05/20 05:50:48;;;;;;;17.52;15.48;;;14.80;99.90;;;;;;4988749;28;20500;-87
2022/05/20 05:53:20;;;;;;;18.35;16.45;;;14.80;99.90;;;;;;4971805;28;20093;-88
2022/05/20 05:59:56;;;;;;;21.33;17.33;;;14.80;99.90;;;;;;4986691;28;20097;-88
2022/05/20 06:05:59;;;;;;;22.77;19.48;;;14.90;99.90;;;;;;4994527;28;20091;-90
2022/05/20 06:08:33;;;;;;;20.88;17.38;;;14.90;99.90;;;;;;4995688;28;20034;-89
2022/05/20 06:10:59;;;;;;;20.77;18.55;;;15.00;99.90;;;;;;5001482;28;20026;-89
2022/05/20 06:13:39;;;;;;;22.02;18.45;;;15.00;99.90;;;;;;4997056;28;20133;-88
2022/05/20 06:16:05;;;;;;;22.38;18.85;;;15.00;99.90;;;;;;4997056;28;20050;-88
2022/05/20 06:22:04;;;;;;;23.83;18.58;;;15.10;99.90;;;;;;5008869;28;20045;-89
2022/05/20 06:24:29;;;;;;;20.67;17.13;;;15.20;99.90;;;;;;4988421;28;20061;-88
2022/05/20 06:28:00;;;;;;;19.55;16.67;;;15.20;99.90;;;;;;4968495;28;20034;-88
2022/05/20 06:30:26;;;;;;;18.80;16.43;;;15.30;99.90;;;;;;4984894;28;20038;-88
2022/05/20 06:32:54;;;;;;;20.30;17.15;;;15.30;99.90;;;;;;5003688;28;20445;-87
2022/05/20 06:40:58;;;;;;;19.77;17.70;;;15.50;99.90;;;;;;5000839;28;20129;-88
2022/05/20 06:47:43;;;;;;;22.02;17.45;;;15.60;99.90;;;;;;4999393;28;20085;-89
2022/05/20 06:50:15;;;;;;;21.40;16.67;;;15.70;99.90;;;;;;4984378;28;20027;-88
2022/05/20 06:52:44;;;;;;;21.13;17.27;;;15.80;99.90;;;;;;4985462;28;20030;-88
2022/05/20 06:55:23;;;;;;;;;;;;;;;;;;;;;
2022/05/20 06:57:56;;;;;;;21.50;17.25;;;15.90;99.90;;;;;;5002818;28;20113;-89
2022/05/20 07:00:34;;;;;;;;;;;;;;;;;;;;;
2022/05/20 07:03:06;;;;;;;22.00;16.58;;;16.00;99.90;;;;;;4996933;28;20358;-89
2022/05/20 07:05:32;;;;;;;21.35;17.35;;;16.10;99.90;;;;;;4979348;28;20022;-89
2022/05/20 07:08:05;;;;;;;24.55;17.33;;;16.10;99.90;;;;;;4979024;28;20404;-90
2022/05/20 07:11:06;;;;;;;19.40;16.27;;;16.10;99.90;;;;;;4922852;28;20031;-90
2022/05/20 07:13:38;;;;;;;20.88;17.27;;;16.20;99.90;;;;;;4946324;28;20162;-87
2022/05/20 07:16:51;;;;;;;;;;;;;;;;;;;;;
2022/05/20 07:19:57;;;;;;;;;;;;;;;;;;;;;
2022/05/20 07:22:24;;;;;;;22.83;17.25;;;16.40;99.90;;;;;;4974313;28;20463;-87
2022/05/20 07:25:19;;;;;;;23.13;16.25;;;16.50;99.90;;;;;;4961751;28;20545;-88
2022/05/20 07:28:03;;;;;;;19.92;16.48;;;16.60;99.90;;;;;;4971053;28;20058;-90
2022/05/20 07:30:31;;;;;;;19.60;15.40;;;16.70;99.90;;;;;;4962714;28;20074;-89
2022/05/20 07:33:22;;;;;;;20.02;16.05;;;16.80;99.90;;;;;;4939750;29;20403;-89
2022/05/20 07:36:00;;;;;;;;;;;;;;;;;;;;;
2022/05/20 07:38:31;;;;;;;19.85;15.35;;;16.90;99.90;;;;;;4956784;29;20065;-89
2022/05/20 07:41:17;;;;;;;;;;;;;;;;;;;;;
2022/05/20 07:43:48;;;;;;;18.55;15.20;;;17.10;99.90;;;;;;4973846;28;20022;-88
2022/05/20 07:46:14;;;;;;;;;;;17.10;99.90;;;;;;4995870;28;20077;-89
2022/05/20 07:48:40;;;;;;;17.02;14.90;;;17.20;99.90;;;;;;4978760;28;19948;-90
2022/05/20 07:51:28;;;;;;;20.15;14.95;;;17.30;99.90;;;;;;4978812;28;20026;-89
2022/05/20 07:54:01;;;;;;;18.92;14.27;;;17.30;99.90;;;;;;4978239;28;20475;-88
2022/05/20 07:56:42;;;;;;;20.60;13.13;;;17.40;99.90;;;;;;4977998;28;20044;-88
2022/05/20 07:59:10;;;;;;;;;;;17.50;99.90;;;;;;4978086;28;20058;-88
2022/05/20 08:01:39;;;;;;;14.25;11.98;;;17.60;99.90;;;;;;4978249;28;19906;-88
2022/05/20 08:07:13;;;;;;;16.90;13.15;;;17.70;99.90;;;;;;4995067;28;20037;-88
2022/05/20 08:10:05;;;;;;;17.58;12.50;;;17.80;99.90;;;;;;4961626;28;20480;-88
2022/05/20 08:12:43;;;;;;;17.55;13.23;;;17.90;99.90;;;;;;4924386;29;20031;-88
2022/05/20 08:15:37;;;;;;;13.98;12.40;;;18.00;99.90;;;;;;4923821;29;20039;-88
2022/05/20 08:18:17;;;;;;;22.25;14.00;;;18.10;99.90;;;;;;4927051;29;20031;-88
2022/05/20 08:20:46;;;;;;;15.88;13.18;;;18.20;99.90;;;;;;4924712;29;20507;-88
2022/05/20 08:23:20;;;;;;;19.15;13.90;;;18.20;99.90;;;;;;4938736;29;20119;-88
2022/05/20 08:25:51;;;;;;;17.42;13.32;;;18.30;99.90;;;;;;4924084;29;20502;-88
2022/05/20 08:28:35;;;;;;;19.98;13.98;;;18.40;99.90;;;;;;4939297;29;20035;-88
2022/05/20 08:31:37;;;;;;;17.67;14.07;;;18.40;99.90;;;;;;4942067;29;20035;-88
2022/05/20 08:34:44;;;;;;;;;;;;;;;;;;;;;
2022/05/20 08:37:38;;;;;;;;;;;;;;;;;;;;;
2022/05/20 08:40:39;;;;;;;;;;;;;;;;;;;;;
2022/05/20 08:47:45;;;;;;;;;;;;;;;;;;;;;
2022/05/20 09:08:34;;;;;;;;;;;;;;;;;;;;;
2022/05/20 09:11:38;;;;;;;11.68;7.85;;;19.40;99.90;;;;;;4870791;29;20034;-89
2022/05/20 09:17:41;;;;;;;13.35;9.07;;;19.50;99.90;;;;;;4945259;28;20130;-90
2022/05/20 09:20:26;;;;;;;11.65;8.73;;;19.50;99.90;;;;;;4968964;28;20154;-91
2022/05/20 09:23:20;;;;;;;11.55;7.97;;;19.50;99.90;;;;;;4979437;28;20463;-89
2022/05/20 09:27:15;;;;;;;;;;;;;;;;;;;;;
2022/05/20 09:29:44;;;;;;;8.90;6.82;;;19.60;99.90;;;;;;4940889;28;20030;-92
2022/05/20 09:32:50;;;;;;;12.52;7.05;;;19.70;99.90;;;;;;4981457;28;20022;-89
2022/05/20 09:35:20;;;;;;;16.83;7.43;;;19.70;99.90;;;;;;4979195;28;20092;-89
2022/05/20 09:38:05;;;;;;;;;;;;;;;;;;;;;
2022/05/20 09:41:09;;;;;;;;;;;;;;;;;;;;;
2022/05/20 09:43:59;;;;;;;12.25;8.15;;;19.80;99.90;;;;;;4977098;28;20033;-91
2022/05/20 09:46:42;;;;;;;11.13;8.63;;;19.80;99.90;;;;;;4976329;28;20023;-90
2022/05/20 09:52:52;;;;;;;12.48;7.40;;;19.90;99.90;;;;;;4966992;28;20141;-90
2022/05/20 09:55:36;;;;;;;13.82;7.93;;;20.00;99.90;;;;;;4963238;28;20030;-89
2022/05/20 09:58:19;;;;;;;13.52;7.05;;;20.10;99.90;;;;;;4978040;28;20033;-90
2022/05/20 10:00:55;;;;;;;11.52;6.88;;;20.10;99.90;;;;;;4960803;28;20093;-92
2022/05/20 10:03:47;;;;;;;11.88;6.78;;;20.10;99.90;;;;;;4960589;28;20049;-91
2022/05/20 10:06:34;;;;;;;8.40;6.75;;;20.20;99.90;;;;;;4960623;28;20027;-92
2022/05/20 10:09:29;;;;;;;14.18;7.65;;;20.20;99.90;;;;;;4960352;28;20113;-92
2022/05/20 10:12:01;;;;;;;12.18;7.57;;;20.30;99.90;;;;;;4959848;28;20023;-89
2022/05/20 10:14:52;;;;;;;12.13;8.18;;;20.40;99.90;;;;;;4973681;28;20499;-90
2022/05/20 10:17:24;;;;;;;11.95;7.78;;;20.40;99.90;;;;;;4959763;28;20430;-91
2022/05/20 10:19:58;;;;;;;12.90;7.65;;;20.50;99.90;;;;;;4966783;28;20166;-90
2022/05/20 10:22:28;;;;;;;11.02;7.25;;;20.50;99.90;;;;;;4942549;28;20114;-90
2022/05/20 10:25:07;;;;;;;9.60;6.93;;;20.60;99.90;;;;;;4954693;28;20039;-90
2022/05/20 10:27:43;;;;;;;11.75;6.65;;;20.60;99.90;;;;;;4991549;28;20086;-90
2022/05/20 10:33:10;;;;;;;8.55;5.35;;;20.70;99.90;;;;;;4961072;28;20047;-90
2022/05/20 10:35:50;;;;;;;9.60;5.53;;;20.70;99.90;;;;;;4958363;29;20027;-91
2022/05/20 10:38:27;;;;;;;9.25;5.32;;;20.80;99.90;;;;;;4957497;29;20530;-90
2022/05/20 10:41:04;;;;;;;7.80;5.28;;;20.90;99.90;;;;;;4956894;29;20388;-92
2022/05/20 10:50:03;;;;;;;8.60;5.78;;;21.00;99.90;;;;;;4957938;29;20436;-92
2022/05/20 10:53:12;;;;;;;11.63;5.57;;;21.10;99.90;;;;;;4957136;29;20030;-91
2022/05/20 10:55:57;;;;;;;9.25;5.43;;;21.20;99.90;;;;;;4957294;29;20027;-91
2022/05/20 10:58:39;;;;;;;10.77;5.35;;;21.30;99.90;;;;;;4941059;29;20030;-93
2022/05/20 11:01:25;;;;;;;9.18;5.35;;;21.40;99.90;;;;;;4956720;29;20035;-92
2022/05/20 11:04:05;;;;;;;9.32;5.68;;;21.40;99.90;;;;;;4969493;28;20113;-91
2022/05/20 11:06:45;;;;;;;10.13;6.65;;;21.50;99.90;;;;;;4972958;28;20035;-92
2022/05/20 11:09:32;;;;;;;11.52;6.50;;;21.60;99.70;;;;;;4959927;28;20059;-96
2022/05/20 11:12:24;;;;;;;9.25;5.40;;;21.60;99.00;;;;;;4959636;28;20031;-96
2022/05/20 11:15:19;;;;;;;8.32;5.28;;;21.70;98.80;;;;;;4959943;28;20051;-96
2022/05/20 11:18:43;;;;;;;7.05;4.45;;;21.70;98.60;;;;;;4971459;28;20027;-96
2022/05/20 11:21:44;;;;;;;7.18;4.40;;;21.70;98.10;;;;;;4978174;28;20043;-92
2022/05/20 11:24:31;;;;;;;7.57;4.50;;;21.80;98.60;;;;;;4966260;28;20130;-89
2022/05/20 11:27:28;;;;;;;10.93;5.20;;;21.80;98.40;;;;;;4961832;28;20121;-89
2022/05/20 11:30:13;;;;;;;7.88;4.80;;;21.90;98.20;;;;;;4957133;29;20035;-90
2022/05/20 11:33:16;;;;;;;10.23;6.00;;;21.90;98.30;;;;;;4956706;29;20035;-92
2022/05/20 11:36:24;;;;;;;8.63;6.10;;;22.00;98.00;;;;;;4939816;29;20023;-91
2022/05/20 11:39:18;;;;;;;9.80;7.43;;;22.00;97.50;;;;;;4956826;29;20034;-92
2022/05/20 11:42:14;;;;;;;9.77;7.90;;;22.00;97.40;;;;;;4956801;29;20040;-90
2022/05/20 11:45:21;;;;;;;11.02;8.48;;;22.10;97.30;;;;;;4955466;28;20024;-91
2022/05/20 11:48:04;;;;;;;12.20;8.32;;;22.10;97.80;;;;;;4954772;29;20027;-91
2022/05/20 11:50:41;;;;;;;13.18;8.85;;;22.10;97.50;;;;;;4940286;29;20027;-93
2022/05/20 11:53:20;;;;;;;12.05;8.65;;;22.20;97.40;;;;;;4939671;29;20472;-92
2022/05/20 11:56:14;;;;;;;13.52;9.13;;;22.20;96.80;;;;;;4955546;29;20027;-91
2022/05/20 11:58:43;;;;;;;13.27;9.23;;;22.20;96.90;;;;;;4955080;29;20143;-92
2022/05/20 12:01:10;;;;;;;13.10;10.23;;;22.20;96.90;;;;;;4956218;29;20039;-92
2022/05/20 12:06:25;;;;;;;10.68;9.13;;;22.30;97.30;;;;;;4956734;29;20041;-90
2022/05/20 12:08:56;;;;;;;13.00;9.85;;;22.30;97.50;;;;;;4956091;29;20044;-91
2022/05/20 12:11:37;;;;;;;12.32;9.68;;;22.30;97.70;;;;;;4954990;29;20827;-91
2022/05/20 12:14:16;;;;;;;12.85;9.80;;;22.30;97.80;;;;;;4955217;29;20483;-91
2022/05/20 12:17:01;;;;;;;13.80;10.38;;;22.30;98.00;;;;;;4955126;29;20080;-92
2022/05/20 12:25:37;;;;;;;15.13;10.87;;;22.40;97.90;;;;;;4955610;28;20435;-91
2022/05/20 12:28:20;;;;;;;17.10;11.60;;;22.40;97.90;;;;;;4948117;29;20039;-92
2022/05/20 12:31:06;;;;;;;14.23;11.50;;;22.40;97.50;;;;;;4938864;29;20027;-92
2022/05/20 12:34:05;;;;;;;16.63;11.60;;;22.40;97.10;;;;;;4956240;29;20074;-91
2022/05/20 12:36:35;;;;;;;19.17;13.20;;;22.40;97.20;;;;;;4954647;29;20023;-91
2022/05/20 12:39:07;;;;;;;17.60;14.23;;;22.40;97.20;;;;;;4954652;29;20074;-91
2022/05/20 12:41:50;;;;;;;18.55;13.70;;;22.30;97.30;;;;;;4938883;29;20046;-91
2022/05/20 12:44:15;;;;;;;21.63;16.33;;;22.30;97.50;;;;;;4938627;28;20082;-91
2022/05/20 12:47:15;;;;;;;19.63;15.40;;;22.30;97.90;;;;;;4990500;28;20034;-91
2022/05/20 12:49:47;;;;;;;20.55;15.93;;;22.30;98.40;;;;;;4980988;28;20073;-91
2022/05/20 12:52:55;;;;;;;20.85;17.40;;;22.30;98.90;;;;;;4957985;28;20498;-88
2022/05/20 12:55:37;;;;;;;21.38;16.88;;;22.30;99.30;;;;;;4937717;29;20035;-89
2022/05/20 12:58:05;;;;;;;23.83;17.73;;;22.30;99.70;;;;;;4990518;28;20030;-90
2022/05/20 13:00:36;;;;;;;19.75;17.58;;;22.30;99.90;;;;;;4976836;28;20035;-89
2022/05/20 13:03:31;;;;;;;22.15;17.33;;;22.30;99.90;;;;;;4978091;28;20506;-89
2022/05/20 13:06:33;;;;;;;23.48;17.08;;;22.20;99.90;;;;;;4956007;28;20055;-91
2022/05/20 13:09:02;;;;;;;29.13;18.65;;;22.20;99.90;;;;;;4946308;28;20035;-87
2022/05/20 13:11:40;;;;;;;24.15;18.23;;;22.10;99.90;;;;;;4965695;28;20066;-87
2022/05/20 13:14:13;;;;;;;20.45;17.98;;;22.10;99.90;;;;;;4961808;28;20481;-89
2022/05/20 13:16:43;;;;;;;24.50;19.50;;;22.10;99.90;;;;;;4978679;28;20030;-89
2022/05/20 13:19:13;;;;;;;24.42;18.52;;;22.00;99.90;;;;;;4961248;28;20709;-89
2022/05/20 13:21:43;;;;;;;22.95;19.73;;;22.00;99.90;;;;;;4960854;28;20030;-90
2022/05/20 13:24:15;;;;;;;25.08;19.77;;;21.90;99.90;;;;;;4956590;28;20138;-89
2022/05/20 13:26:42;;;;;;;23.27;20.77;;;21.90;99.90;;;;;;4965896;28;20019;-90
2022/05/20 13:29:17;;;;;;;23.60;19.67;;;21.90;99.90;;;;;;4961500;28;20035;-89
2022/05/20 13:31:45;;;;;;;23.63;19.63;;;21.80;99.90;;;;;;4961249;28;20113;-89
2022/05/20 13:34:12;;;;;;;24.67;21.13;;;21.80;99.90;;;;;;4945904;28;20030;-89
2022/05/20 13:36:42;;;;;;;23.15;20.63;;;21.70;99.90;;;;;;4960693;28;20114;-89
2022/05/20 13:39:14;;;;;;;26.50;20.70;;;21.70;99.90;;;;;;4961024;28;20031;-88
2022/05/20 13:41:40;;;;;;;24.70;19.27;;;21.70;99.90;;;;;;4960464;28;20042;-88
2022/05/20 13:44:07;;;;;;;23.23;20.70;;;21.70;99.90;;;;;;4960488;28;20078;-89
2022/05/20 13:49:23;;;;;;;22.40;19.90;;;21.70;99.90;;;;;;4978037;28;20182;-88
2022/05/20 13:51:50;;;;;;;26.02;19.88;;;21.70;99.90;;;;;;4960563;28;20031;-89
2022/05/20 13:54:38;;;;;;;25.58;20.67;;;21.70;99.90;;;;;;4960209;28;20069;-88
2022/05/20 13:57:06;;;;;;;25.75;19.88;;;21.60;99.90;;;;;;4960447;28;20065;-88
2022/05/20 13:59:34;;;;;;;23.10;20.13;;;21.60;99.90;;;;;;4977126;28;20031;-89
2022/05/20 14:02:14;;;;;;;23.10;20.45;;;21.50;99.90;;;;;;4963914;28;20019;-89
2022/05/20 14:04:45;;;;;;;24.35;20.40;;;21.50;99.90;;;;;;4983537;28;20023;-90
2022/05/20 14:07:21;;;;;;;29.35;23.13;;;21.50;99.90;;;;;;4967378;28;20026;-88
2022/05/20 14:10:13;;;;;;;27.45;23.13;;;21.40;99.90;;;;;;4966310;28;20106;-88
2022/05/20 14:12:46;;;;;;;28.60;22.52;;;21.40;99.90;;;;;;4958733;28;20042;-89
2022/05/20 14:15:20;;;;;;;30.17;23.67;;;21.40;99.90;;;;;;4983541;28;20070;-90
2022/05/20 14:17:46;;;;;;;31.23;23.75;;;21.40;99.90;;;;;;4963726;28;20106;-87
2022/05/20 14:20:15;;;;;;;37.05;24.23;;;21.40;99.90;;;;;;4946877;28;20042;-90
2022/05/20 14:22:56;;;;;;;;;;;;;;;;;;;;;
2022/05/20 14:44:04;;;;;;;;;;;;;;;;;;;;;
2022/05/20 14:57:23;;;;;;;20.08;15.60;;;20.90;99.90;;;;;;4785471;30;20120;-92
2022/05/20 15:06:46;;;;;;;16.33;11.48;;;20.80;99.90;;;;;;4843719;29;20079;-89
2022/05/20 15:20:02;;;;;;;21.38;13.15;;;20.70;99.90;;;;;;4844069;29;20022;-89
2022/05/20 15:29:59;;;;;;;12.52;9.45;;;20.70;99.90;;;;;;4899048;29;20099;-90
2022/05/20 15:36:32;;;;;;;9.95;7.22;;;20.70;99.90;;;;;;4898607;29;20044;-89
2022/05/20 15:46:36;;;;;;;9.52;7.75;;;20.70;99.90;;;;;;4879657;29;20458;-89
2022/05/20 15:52:30;;;;;;;9.90;8.90;;;20.60;99.90;;;;;;4863609;29;20124;-89
2022/05/20 15:55:05;;;;;;;11.00;8.57;;;20.50;99.90;;;;;;4899992;29;20126;-87
2022/05/20 15:57:41;;;;;;;11.35;9.55;;;20.40;99.90;;;;;;4900059;29;20028;-94
2022/05/20 16:07:11;;;;;;;12.57;11.23;;;20.20;99.90;;;;;;4934469;28;20042;-87
2022/05/20 16:09:43;;;;;;;11.88;9.88;;;20.10;99.90;;;;;;4935497;29;20034;-87
2022/05/20 16:12:19;;;;;;;10.77;9.68;;;20.00;99.90;;;;;;4935471;29;20030;-87
2022/05/20 16:14:56;;;;;;;12.35;10.70;;;20.00;99.90;;;;;;4935705;29;20118;-87
2022/05/20 16:17:24;;;;;;;11.60;9.85;;;20.00;99.90;;;;;;4935473;29;20035;-87
2022/05/20 16:19:58;;;;;;;13.52;10.70;;;19.90;99.90;;;;;;4934790;29;20031;-88
2022/05/20 16:22:39;;;;;;;;;;;;;;;;;;;;;
2022/05/20 16:25:11;;;;;;;13.45;11.52;;;19.80;99.90;;;;;;4936639;29;20023;-86
2022/05/20 16:27:50;;;;;;;13.07;10.63;;;19.80;99.90;;;;;;4938451;29;20027;-86